createdAt,value
2023-01-08T05:00:28.973Z,995.98
2023-01-08T05:01:28.952Z,996.01
2023-01-08T05:02:29.033Z,995.95
2023-01-08T05:03:28.858Z,995.94
2023-01-08T05:04:28.780Z,995.94
2023-01-08T05:05:28.757Z,995.98
2023-01-08T05:06:28.746Z,996.02
2023-01-08T05:07:28.739Z,995.95
2023-01-08T05:08:28.726Z,995.94
2023-01-08T05:09:28.724Z,995.96
2023-01-08T05:10:28.697Z,996.02
2023-01-08T05:11:33.728Z,996.00
2023-01-08T05:12:28.680Z,996.01
2023-01-08T05:13:28.696Z,996.07
2023-01-08T05:14:28.707Z,996.08
2023-01-08T05:15:28.752Z,996.07
2023-01-08T05:16:28.867Z,996.03
2023-01-08T05:17:28.629Z,996.07
2023-01-08T05:18:29.621Z,995.99
2023-01-08T05:19:28.627Z,996.00
2023-01-08T05:20:28.587Z,996.00
2023-01-08T05:21:28.582Z,996.06
2023-01-08T05:22:33.586Z,996.11
2023-01-08T05:23:28.557Z,996.06
2023-01-08T05:24:29.003Z,996.07
2023-01-08T05:25:28.542Z,996.11
2023-01-08T05:26:28.530Z,996.07
2023-01-08T05:27:28.567Z,996.08
2023-01-08T05:28:28.507Z,996.03
2023-01-08T05:29:28.509Z,996.04
2023-01-08T05:30:28.484Z,995.99
2023-01-08T05:31:28.472Z,995.93
2023-01-08T05:32:28.575Z,995.93
2023-01-08T05:33:33.465Z,995.98
2023-01-08T05:34:28.424Z,995.95
2023-01-08T05:35:28.437Z,995.99
2023-01-08T05:36:28.406Z,995.97
2023-01-08T05:37:29.392Z,995.93
2023-01-08T05:38:28.393Z,996.00
2023-01-08T05:39:28.442Z,995.89
2023-01-08T05:40:28.392Z,995.99
2023-01-08T05:41:28.365Z,995.95
2023-01-08T05:42:28.343Z,995.87
2023-01-08T05:43:28.331Z,995.86
2023-01-08T05:44:33.361Z,995.88
2023-01-08T05:45:28.354Z,995.84
2023-01-08T05:46:28.388Z,995.85
2023-01-08T05:47:28.292Z,995.88
2023-01-08T05:48:28.385Z,995.86
2023-01-08T05:49:28.274Z,995.85
2023-01-08T05:50:28.290Z,995.82
2023-01-08T05:51:28.249Z,995.87
2023-01-08T05:52:28.235Z,995.85
2023-01-08T05:53:28.217Z,995.84
2023-01-08T05:54:28.200Z,995.81
2023-01-08T05:55:33.284Z,995.73
2023-01-08T05:56:28.178Z,995.80
2023-01-08T05:57:28.206Z,995.77
2023-01-08T05:58:28.175Z,995.79
2023-01-08T05:59:28.150Z,995.85
2023-01-08T06:00:28.143Z,995.82
2023-01-08T06:01:28.169Z,995.88
2023-01-08T06:02:28.142Z,995.80
2023-01-08T06:03:28.103Z,995.82
2023-01-08T06:04:28.239Z,995.78
2023-01-08T06:05:28.089Z,995.64
2023-01-08T06:06:34.089Z,995.66
2023-01-08T06:07:28.057Z,995.65
2023-01-08T06:08:28.053Z,995.71
2023-01-08T06:09:28.046Z,995.62
2023-01-08T06:10:28.029Z,995.73
2023-01-08T06:11:28.008Z,995.67
2023-01-08T06:12:27.998Z,995.68
2023-01-08T06:13:28.005Z,995.69
2023-01-08T06:14:27.984Z,995.66
2023-01-08T06:15:27.966Z,995.69
2023-01-08T06:16:27.963Z,995.67
2023-01-08T06:17:32.968Z,995.68
2023-01-08T06:18:27.931Z,995.69
2023-01-08T06:19:27.940Z,995.76
2023-01-08T06:20:28.075Z,995.67
2023-01-08T06:21:27.904Z,995.71
2023-01-08T06:22:27.888Z,995.68
2023-01-08T06:23:27.886Z,995.74
2023-01-08T06:24:27.878Z,995.77
2023-01-08T06:25:27.870Z,995.84
2023-01-08T06:26:27.875Z,995.88
2023-01-08T06:27:27.834Z,995.85
2023-01-08T06:28:32.845Z,995.80
2023-01-08T06:29:27.828Z,995.87
2023-01-08T06:30:27.795Z,995.83
2023-01-08T06:31:27.842Z,995.87
2023-01-08T06:32:27.779Z,995.85
2023-01-08T06:33:27.782Z,995.86
2023-01-08T06:34:27.769Z,995.82
2023-01-08T06:35:27.740Z,995.86
2023-01-08T06:36:27.761Z,995.93
2023-01-08T06:37:27.744Z,995.89
2023-01-08T06:38:27.728Z,995.86
2023-01-08T06:39:32.752Z,995.90
2023-01-08T06:40:27.681Z,995.87
2023-01-08T06:41:27.678Z,995.88
2023-01-08T06:42:27.675Z,995.91
2023-01-08T06:43:27.663Z,995.83
2023-01-08T06:44:27.643Z,995.90
2023-01-08T06:45:27.646Z,995.94
2023-01-08T06:46:27.651Z,995.95
2023-01-08T06:47:27.603Z,996.05
2023-01-08T06:48:27.603Z,996.03
2023-01-08T06:49:27.609Z,996.02
2023-01-08T06:50:32.620Z,995.99
2023-01-08T06:51:27.557Z,996.02
2023-01-08T06:52:27.664Z,995.99
2023-01-08T06:53:27.568Z,995.97
2023-01-08T06:54:27.557Z,995.95
2023-01-08T06:55:27.543Z,995.95
2023-01-08T06:56:27.503Z,995.98
2023-01-08T06:57:27.490Z,996.00
2023-01-08T06:58:27.477Z,995.93
2023-01-08T06:59:27.496Z,995.95
2023-01-08T07:00:27.495Z,995.92
2023-01-08T07:01:32.557Z,995.88
2023-01-08T07:02:27.678Z,995.89
2023-01-08T07:03:27.563Z,995.93
2023-01-08T07:04:27.418Z,995.95
2023-01-08T07:05:27.556Z,995.91
2023-01-08T07:06:27.390Z,995.95
2023-01-08T07:07:27.430Z,995.95
2023-01-08T07:08:27.487Z,995.97
2023-01-08T07:09:27.380Z,996.02
2023-01-08T07:10:27.387Z,995.98
2023-01-08T07:11:27.350Z,996.01
2023-01-08T07:12:32.378Z,996.02
2023-01-08T07:13:27.308Z,995.93
2023-01-08T07:14:27.309Z,996.03
2023-01-08T07:15:27.311Z,995.99
2023-01-08T07:16:27.341Z,995.96
2023-01-08T07:17:27.264Z,996.02
2023-01-08T07:18:27.263Z,996.06
2023-01-08T07:19:27.238Z,996.03
2023-01-08T07:20:27.240Z,996.01
2023-01-08T07:21:27.217Z,996.09
2023-01-08T07:22:27.219Z,995.96
2023-01-08T07:23:32.337Z,995.87
2023-01-08T07:24:27.185Z,995.86
2023-01-08T07:25:27.187Z,995.97
2023-01-08T07:26:27.167Z,995.94
2023-01-08T07:27:27.149Z,995.89
2023-01-08T07:28:27.177Z,995.97
2023-01-08T07:29:27.130Z,995.93
2023-01-08T07:30:30.185Z,995.90
2023-01-08T07:31:27.122Z,995.85
2023-01-08T07:32:27.143Z,995.91
2023-01-08T07:33:27.087Z,995.98
2023-01-08T07:34:32.101Z,995.98
2023-01-08T07:35:27.068Z,995.91
2023-01-08T07:36:27.059Z,995.96
2023-01-08T07:37:27.094Z,995.97
2023-01-08T07:38:27.033Z,995.91
2023-01-08T07:39:27.152Z,995.91
2023-01-08T07:40:27.046Z,995.99
2023-01-08T07:41:26.995Z,995.99
2023-01-08T07:42:26.980Z,995.96
2023-01-08T07:43:26.970Z,995.97
2023-01-08T07:44:26.970Z,995.94
2023-01-08T07:45:31.987Z,995.98
2023-01-08T07:46:27.092Z,996.00
2023-01-08T07:47:26.970Z,996.04
2023-01-08T07:48:26.930Z,996.11
2023-01-08T07:49:26.906Z,996.10
2023-01-08T07:50:26.968Z,996.05
2023-01-08T07:51:26.878Z,996.08
2023-01-08T07:52:26.874Z,996.11
2023-01-08T07:53:26.854Z,996.09
2023-01-08T07:54:26.850Z,996.11
2023-01-08T07:55:26.969Z,996.10
2023-01-08T07:56:31.865Z,996.12
2023-01-08T07:57:26.816Z,996.09
2023-01-08T07:58:26.844Z,996.09
2023-01-08T07:59:26.791Z,996.11
2023-01-08T08:00:26.859Z,996.06
2023-01-08T08:01:26.846Z,996.10
2023-01-08T08:02:26.940Z,996.06
2023-01-08T08:03:26.929Z,996.02
2023-01-08T08:04:26.815Z,996.01
2023-01-08T08:05:26.734Z,996.01
2023-01-08T08:06:26.711Z,995.96
2023-01-08T08:07:31.724Z,995.95
2023-01-08T08:08:26.685Z,995.96
2023-01-08T08:09:26.676Z,995.97
2023-01-08T08:10:26.678Z,995.99
2023-01-08T08:11:26.778Z,995.91
2023-01-08T08:12:26.676Z,995.94
2023-01-08T08:13:26.632Z,995.95
2023-01-08T08:14:26.618Z,995.95
2023-01-08T08:15:26.619Z,995.98
2023-01-08T08:16:26.724Z,995.96
2023-01-08T08:17:26.652Z,995.94
2023-01-08T08:18:31.603Z,995.97
2023-01-08T08:19:26.569Z,995.95
2023-01-08T08:20:26.747Z,995.97
2023-01-08T08:21:26.536Z,995.96
2023-01-08T08:22:26.561Z,995.91
2023-01-08T08:23:26.559Z,995.94
2023-01-08T08:24:26.525Z,995.98
2023-01-08T08:25:26.622Z,995.89
2023-01-08T08:26:26.489Z,996.00
2023-01-08T08:27:26.596Z,996.01
2023-01-08T08:28:26.468Z,995.90
2023-01-08T08:29:31.471Z,995.90
2023-01-08T08:30:26.552Z,995.93
2023-01-08T08:31:26.759Z,995.96
2023-01-08T08:32:26.415Z,995.93
2023-01-08T08:33:26.457Z,995.94
2023-01-08T08:34:26.738Z,995.89
2023-01-08T08:35:26.420Z,995.90
2023-01-08T08:36:26.429Z,995.91
2023-01-08T08:37:26.692Z,995.88
2023-01-08T08:38:26.512Z,995.87
2023-01-08T08:39:26.379Z,995.88
2023-01-08T08:40:31.387Z,995.84
2023-01-08T08:41:26.384Z,995.84
2023-01-08T08:42:26.353Z,995.81
2023-01-08T08:43:26.327Z,995.84
2023-01-08T08:44:26.303Z,995.80
2023-01-08T08:45:26.757Z,995.86
2023-01-08T08:46:26.323Z,995.81
2023-01-08T08:47:26.251Z,995.86
2023-01-08T08:48:26.238Z,995.84
2023-01-08T08:49:26.220Z,995.83
2023-01-08T08:50:26.321Z,995.79
2023-01-08T08:51:31.339Z,995.85
2023-01-08T08:52:26.610Z,995.86
2023-01-08T08:53:27.705Z,995.83
2023-01-08T08:54:26.167Z,995.78
2023-01-08T08:55:26.160Z,995.75
2023-01-08T08:56:26.154Z,995.80
2023-01-08T08:57:26.147Z,995.78
2023-01-08T08:58:26.193Z,995.76
2023-01-08T08:59:26.418Z,995.77
2023-01-08T09:00:27.292Z,995.79
2023-01-08T09:01:26.268Z,995.69
2023-01-08T09:02:31.489Z,995.65
2023-01-08T09:03:26.136Z,995.66
2023-01-08T09:04:26.053Z,995.67
2023-01-08T09:05:26.101Z,995.64
2023-01-08T09:06:26.029Z,995.69
2023-01-08T09:07:26.029Z,995.66
2023-01-08T09:08:28.964Z,995.65
2023-01-08T09:09:26.007Z,995.65
2023-01-08T09:10:26.059Z,995.63
2023-01-08T09:11:26.133Z,995.65
2023-01-08T09:12:25.963Z,995.59
2023-01-08T09:13:30.975Z,995.56
2023-01-08T09:14:25.963Z,995.59
2023-01-08T09:15:26.093Z,995.60
2023-01-08T09:16:25.975Z,995.71
2023-01-08T09:17:26.135Z,995.70
2023-01-08T09:18:25.927Z,995.70
2023-01-08T09:19:25.916Z,995.76
2023-01-08T09:20:25.929Z,995.64
2023-01-08T09:21:25.855Z,995.70
2023-01-08T09:22:25.847Z,995.78
2023-01-08T09:23:26.010Z,995.72
2023-01-08T09:24:30.845Z,995.70
2023-01-08T09:25:26.107Z,995.74
2023-01-08T09:26:25.802Z,995.73
2023-01-08T09:27:25.790Z,995.69
2023-01-08T09:28:25.804Z,995.66
2023-01-08T09:29:25.788Z,995.72
2023-01-08T09:30:27.079Z,995.70
2023-01-08T09:31:25.933Z,995.80
2023-01-08T09:32:25.809Z,995.71
2023-01-08T09:33:25.722Z,995.70
2023-01-08T09:34:25.793Z,995.73
2023-01-08T09:35:30.764Z,995.74
2023-01-08T09:36:25.691Z,995.69
2023-01-08T09:37:25.677Z,995.71
2023-01-08T09:38:26.780Z,995.71
2023-01-08T09:39:25.660Z,995.65
2023-01-08T09:40:26.231Z,995.62
2023-01-08T09:41:25.649Z,995.68
2023-01-08T09:42:25.658Z,995.61
2023-01-08T09:43:25.690Z,995.66
2023-01-08T09:44:26.235Z,995.68
2023-01-08T09:45:27.605Z,995.69
2023-01-08T09:46:30.765Z,995.72
2023-01-08T09:47:25.569Z,995.62
2023-01-08T09:48:25.734Z,995.69
2023-01-08T09:49:25.548Z,995.71
2023-01-08T09:50:25.631Z,995.59
2023-01-08T09:51:25.575Z,995.64
2023-01-08T09:52:25.677Z,995.53
2023-01-08T09:53:25.735Z,995.57
2023-01-08T09:54:25.522Z,995.63
2023-01-08T09:55:25.472Z,995.53
2023-01-08T09:56:25.472Z,995.56
2023-01-08T09:57:31.338Z,995.66
2023-01-08T09:58:25.455Z,995.61
2023-01-08T09:59:25.429Z,995.64
2023-01-08T10:00:26.826Z,995.63
2023-01-08T10:01:25.569Z,995.66
2023-01-08T10:02:25.693Z,995.65
2023-01-08T10:03:25.420Z,995.67
2023-01-08T10:04:25.430Z,995.60
2023-01-08T10:05:25.357Z,995.61
2023-01-08T10:06:25.557Z,995.65
2023-01-08T10:07:25.342Z,995.66
2023-01-08T10:08:30.808Z,995.62
2023-01-08T10:09:25.351Z,995.66
2023-01-08T10:10:25.306Z,995.69
2023-01-08T10:11:25.311Z,995.60
2023-01-08T10:12:25.348Z,995.67
2023-01-08T10:13:25.272Z,995.66
2023-01-08T10:14:25.271Z,995.66
2023-01-08T10:15:25.263Z,995.69
2023-01-08T10:16:25.282Z,995.65
2023-01-08T10:17:25.239Z,995.67
2023-01-08T10:18:25.234Z,995.67
2023-01-08T10:19:31.939Z,995.64
2023-01-08T10:20:25.203Z,995.64
2023-01-08T10:21:25.216Z,995.55
2023-01-08T10:22:25.170Z,995.56
2023-01-08T10:23:25.161Z,995.57
2023-01-08T10:24:25.148Z,995.57
2023-01-08T10:25:25.584Z,995.57
2023-01-08T10:26:25.164Z,995.58
2023-01-08T10:27:25.420Z,995.58
2023-01-08T10:28:25.142Z,995.52
2023-01-08T10:29:25.456Z,995.60
2023-01-08T10:30:30.305Z,995.54
2023-01-08T10:31:25.133Z,995.52
2023-01-08T10:32:25.104Z,995.53
2023-01-08T10:33:25.104Z,995.52
2023-01-08T10:34:25.194Z,995.52
2023-01-08T10:35:25.049Z,995.47
2023-01-08T10:36:25.025Z,995.48
2023-01-08T10:37:25.027Z,995.49
2023-01-08T10:38:25.034Z,995.48
2023-01-08T10:39:24.987Z,995.50
2023-01-08T10:40:24.982Z,995.41
2023-01-08T10:41:31.107Z,995.38
2023-01-08T10:42:24.971Z,995.33
2023-01-08T10:43:24.999Z,995.37
2023-01-08T10:44:24.938Z,995.30
2023-01-08T10:45:24.926Z,995.35
2023-01-08T10:46:25.000Z,995.35
2023-01-08T10:47:25.887Z,995.31
2023-01-08T10:48:24.880Z,995.29
2023-01-08T10:49:24.890Z,995.30
2023-01-08T10:50:24.917Z,995.30
2023-01-08T10:51:24.853Z,995.29
2023-01-08T10:52:29.987Z,995.15
2023-01-08T10:53:24.835Z,995.19
2023-01-08T10:54:24.922Z,995.11
2023-01-08T10:55:24.861Z,995.14
2023-01-08T10:56:24.813Z,995.15
2023-01-08T10:57:24.799Z,995.19
2023-01-08T10:58:24.803Z,995.17
2023-01-08T10:59:24.810Z,995.13
2023-01-08T11:00:24.781Z,995.16
2023-01-08T11:01:25.246Z,995.14
2023-01-08T11:02:25.009Z,995.17
2023-01-08T11:03:29.789Z,995.15
2023-01-08T11:04:24.834Z,995.17
2023-01-08T11:05:24.696Z,995.15
2023-01-08T11:06:24.722Z,995.18
2023-01-08T11:07:24.707Z,995.16
2023-01-08T11:08:24.750Z,995.07
2023-01-08T11:09:24.726Z,995.12
2023-01-08T11:10:24.688Z,995.11
2023-01-08T11:11:24.651Z,995.16
2023-01-08T11:12:24.670Z,995.03
2023-01-08T11:13:25.595Z,995.02
2023-01-08T11:14:29.602Z,995.00
2023-01-08T11:15:24.580Z,994.98
2023-01-08T11:16:24.677Z,995.01
2023-01-08T11:17:25.572Z,994.98
2023-01-08T11:18:24.574Z,994.95
2023-01-08T11:19:24.526Z,994.97
2023-01-08T11:20:24.526Z,994.97
2023-01-08T11:21:24.523Z,994.94
2023-01-08T11:22:24.545Z,994.85
2023-01-08T11:23:24.554Z,994.82
2023-01-08T11:24:24.470Z,994.78
2023-01-08T11:25:29.486Z,994.75
2023-01-08T11:26:24.456Z,994.76
2023-01-08T11:27:24.460Z,994.74
2023-01-08T11:28:24.437Z,994.74
2023-01-08T11:29:24.478Z,994.69
2023-01-08T11:30:24.432Z,994.62
2023-01-08T11:31:24.513Z,994.60
2023-01-08T11:32:24.417Z,994.63
2023-01-08T11:33:24.383Z,994.56
2023-01-08T11:34:25.377Z,994.62
2023-01-08T11:35:24.357Z,994.51
2023-01-08T11:36:29.369Z,994.54
2023-01-08T11:37:24.369Z,994.49
2023-01-08T11:38:24.337Z,994.53
2023-01-08T11:39:24.319Z,994.44
2023-01-08T11:40:24.294Z,994.44
2023-01-08T11:41:25.652Z,994.42
2023-01-08T11:42:24.294Z,994.45
2023-01-08T11:43:24.255Z,994.39
2023-01-08T11:44:24.242Z,994.32
2023-01-08T11:45:24.276Z,994.32
2023-01-08T11:46:24.220Z,994.31
2023-01-08T11:47:29.248Z,994.35
2023-01-08T11:48:24.202Z,994.33
2023-01-08T11:49:24.190Z,994.32
2023-01-08T11:50:25.180Z,994.27
2023-01-08T11:51:24.163Z,994.24
2023-01-08T11:52:24.180Z,994.23
2023-01-08T11:53:24.164Z,994.17
2023-01-08T11:54:24.152Z,994.10
2023-01-08T11:55:24.128Z,994.16
2023-01-08T11:56:24.108Z,994.15
2023-01-08T11:57:24.188Z,994.13
2023-01-08T11:58:29.127Z,994.10
2023-01-08T11:59:24.077Z,994.12
2023-01-08T12:00:24.086Z,994.12
2023-01-08T12:01:24.079Z,994.11
2023-01-08T12:02:24.098Z,994.02
2023-01-08T12:03:24.292Z,994.06
2023-01-08T12:04:24.052Z,994.07
2023-01-08T12:05:24.003Z,994.06
2023-01-08T12:06:24.013Z,994.07
2023-01-08T12:07:23.983Z,994.07
2023-01-08T12:08:23.981Z,993.99
2023-01-08T12:09:29.009Z,994.02
2023-01-08T12:10:23.951Z,993.96
2023-01-08T12:11:23.961Z,993.99
2023-01-08T12:12:23.982Z,994.03
2023-01-08T12:13:23.928Z,993.98
2023-01-08T12:14:23.905Z,993.99
2023-01-08T12:15:24.898Z,994.00
2023-01-08T12:16:23.989Z,993.91
2023-01-08T12:17:24.963Z,993.97
2023-01-08T12:18:23.878Z,994.00
2023-01-08T12:19:23.867Z,993.99
2023-01-08T12:20:28.859Z,993.92
2023-01-08T12:21:23.824Z,993.97
2023-01-08T12:22:23.831Z,993.84
2023-01-08T12:23:23.823Z,993.92
2023-01-08T12:24:23.791Z,993.83
2023-01-08T12:25:23.809Z,993.84
2023-01-08T12:26:23.773Z,993.72
2023-01-08T12:27:40.821Z,993.76
2023-01-08T12:28:24.767Z,993.68
2023-01-08T12:29:23.730Z,993.71
2023-01-08T12:30:23.800Z,993.71
2023-01-08T12:31:28.773Z,993.70
2023-01-08T12:32:23.751Z,993.73
2023-01-08T12:33:23.779Z,993.67
2023-01-08T12:34:23.698Z,993.73
2023-01-08T12:35:23.671Z,993.62
2023-01-08T12:36:23.725Z,993.68
2023-01-08T12:37:23.637Z,993.67
2023-01-08T12:38:23.637Z,993.66
2023-01-08T12:39:23.651Z,993.69
2023-01-08T12:40:23.635Z,993.65
2023-01-08T12:41:23.684Z,993.62
2023-01-08T12:42:28.703Z,993.57
2023-01-08T12:43:23.574Z,993.62
2023-01-08T12:44:23.692Z,993.51
2023-01-08T12:45:23.550Z,993.54
2023-01-08T12:46:23.545Z,993.57
2023-01-08T12:47:23.527Z,993.49
2023-01-08T12:48:23.525Z,993.53
2023-01-08T12:49:23.515Z,993.42
2023-01-08T12:50:23.514Z,993.45
2023-01-08T12:51:23.504Z,993.46
2023-01-08T12:52:23.489Z,993.42
2023-01-08T12:53:28.501Z,993.49
2023-01-08T12:54:23.455Z,993.46
2023-01-08T12:55:23.494Z,993.42
2023-01-08T12:56:23.421Z,993.36
2023-01-08T12:57:23.438Z,993.40
2023-01-08T12:58:23.437Z,993.44
2023-01-08T12:59:23.401Z,993.41
2023-01-08T13:00:23.394Z,993.41
2023-01-08T13:01:23.609Z,993.40
2023-01-08T13:02:24.105Z,993.39
2023-01-08T13:03:23.346Z,993.36
2023-01-08T13:04:28.379Z,993.36
2023-01-08T13:05:23.324Z,993.43
2023-01-08T13:06:23.319Z,993.42
2023-01-08T13:07:23.305Z,993.37
2023-01-08T13:08:23.302Z,993.38
2023-01-08T13:09:23.328Z,993.41
2023-01-08T13:10:23.279Z,993.41
2023-01-08T13:11:23.256Z,993.33
2023-01-08T13:12:23.257Z,993.34
2023-01-08T13:13:23.264Z,993.37
2023-01-08T13:14:23.219Z,993.36
2023-01-08T13:15:28.242Z,993.34
2023-01-08T13:16:23.215Z,993.45
2023-01-08T13:17:23.205Z,993.42
2023-01-08T13:18:23.194Z,993.45
2023-01-08T13:19:23.168Z,993.48
2023-01-08T13:20:23.169Z,993.47
2023-01-08T13:21:23.137Z,993.42
2023-01-08T13:22:23.164Z,993.36
2023-01-08T13:23:23.147Z,993.37
2023-01-08T13:24:23.111Z,993.29
2023-01-08T13:25:23.115Z,993.35
2023-01-08T13:26:28.127Z,993.28
2023-01-08T13:27:23.070Z,993.31
2023-01-08T13:28:26.055Z,993.25
2023-01-08T13:29:23.066Z,993.22
2023-01-08T13:30:23.038Z,993.21
2023-01-08T13:31:23.035Z,993.18
2023-01-08T13:32:23.020Z,993.20
2023-01-08T13:33:23.019Z,993.11
2023-01-08T13:34:22.996Z,993.17
2023-01-08T13:35:22.999Z,993.13
2023-01-08T13:36:23.020Z,993.16
2023-01-08T13:37:28.288Z,993.06
2023-01-08T13:38:22.969Z,993.08
2023-01-08T13:39:22.955Z,993.07
2023-01-08T13:40:22.935Z,993.10
2023-01-08T13:41:22.916Z,993.07
2023-01-08T13:42:22.906Z,993.01
2023-01-08T13:43:22.905Z,993.04
2023-01-08T13:44:23.950Z,993.07
2023-01-08T13:45:22.919Z,993.05
2023-01-08T13:46:22.858Z,993.04
2023-01-08T13:47:22.958Z,993.07
2023-01-08T13:48:27.922Z,993.10
2023-01-08T13:49:22.908Z,993.10
2023-01-08T13:50:22.831Z,993.06
2023-01-08T13:51:22.888Z,993.10
2023-01-08T13:52:22.791Z,993.03
2023-01-08T13:53:22.822Z,993.01
2023-01-08T13:54:22.958Z,993.15
2023-01-08T13:55:22.759Z,993.09
2023-01-08T13:56:22.868Z,993.06
2023-01-08T13:57:22.840Z,993.10
2023-01-08T13:58:22.758Z,993.07
2023-01-08T13:59:27.728Z,993.04
2023-01-08T14:00:22.797Z,993.04
2023-01-08T14:01:23.208Z,993.00
2023-01-08T14:02:22.967Z,992.94
2023-01-08T14:03:22.725Z,992.97
2023-01-08T14:04:22.735Z,992.90
2023-01-08T14:05:23.066Z,992.89
2023-01-08T14:06:22.646Z,992.75
2023-01-08T14:07:22.711Z,992.81
2023-01-08T14:08:22.761Z,992.79
2023-01-08T14:09:22.602Z,992.68
2023-01-08T14:10:27.607Z,992.86
2023-01-08T14:11:22.669Z,992.80
2023-01-08T14:12:22.583Z,992.80
2023-01-08T14:13:22.686Z,992.74
2023-01-08T14:14:22.756Z,992.71
2023-01-08T14:15:22.619Z,992.67
2023-01-08T14:16:22.960Z,992.73
2023-01-08T14:17:22.543Z,992.65
2023-01-08T14:18:23.022Z,992.64
2023-01-08T14:19:22.502Z,992.65
2023-01-08T14:20:22.468Z,992.61
2023-01-08T14:21:27.720Z,992.67
2023-01-08T14:22:22.444Z,992.64
2023-01-08T14:23:22.532Z,992.65
2023-01-08T14:24:22.447Z,992.63
2023-01-08T14:25:22.427Z,992.67
2023-01-08T14:26:22.473Z,992.74
2023-01-08T14:27:22.669Z,992.69
2023-01-08T14:28:22.405Z,992.59
2023-01-08T14:29:22.896Z,992.66
2023-01-08T14:30:22.384Z,992.72
2023-01-08T14:31:22.410Z,992.71
2023-01-08T14:32:27.379Z,992.65
2023-01-08T14:33:22.350Z,992.61
2023-01-08T14:34:22.472Z,992.62
2023-01-08T14:35:22.347Z,992.64
2023-01-08T14:36:22.306Z,992.65
2023-01-08T14:37:22.298Z,992.66
2023-01-08T14:38:22.293Z,992.68
2023-01-08T14:39:22.262Z,992.65
2023-01-08T14:40:22.562Z,992.55
2023-01-08T14:41:22.300Z,992.57
2023-01-08T14:42:22.365Z,992.51
2023-01-08T14:43:27.694Z,992.56
2023-01-08T14:44:29.141Z,992.61
2023-01-08T14:45:23.177Z,992.58
2023-01-08T14:46:22.297Z,992.61
2023-01-08T14:47:22.161Z,992.60
2023-01-08T14:48:22.206Z,992.64
2023-01-08T14:49:22.220Z,992.58
2023-01-08T14:50:22.161Z,992.60
2023-01-08T14:51:22.125Z,992.56
2023-01-08T14:52:22.138Z,992.52
2023-01-08T14:53:22.246Z,992.54
2023-01-08T14:54:27.148Z,992.52
2023-01-08T14:55:22.060Z,992.47
2023-01-08T14:56:22.165Z,992.48
2023-01-08T14:57:24.174Z,992.51
2023-01-08T14:58:22.061Z,992.46
2023-01-08T14:59:22.245Z,992.50
2023-01-08T15:00:22.082Z,992.47
2023-01-08T15:01:22.251Z,992.47
2023-01-08T15:02:22.185Z,992.38
2023-01-08T15:03:23.551Z,992.41
2023-01-08T15:04:22.056Z,992.32
2023-01-08T15:05:27.219Z,992.28
2023-01-08T15:06:23.734Z,992.31
2023-01-08T15:07:22.092Z,992.30
2023-01-08T15:08:22.279Z,992.27
2023-01-08T15:09:22.044Z,992.18
2023-01-08T15:10:21.911Z,992.22
2023-01-08T15:11:21.962Z,992.20
2023-01-08T15:12:21.885Z,992.21
2023-01-08T15:13:23.667Z,992.20
2023-01-08T15:14:21.856Z,992.29
2023-01-08T15:15:22.079Z,992.21
2023-01-08T15:16:26.937Z,992.20
2023-01-08T15:17:21.924Z,992.31
2023-01-08T15:18:22.186Z,992.31
2023-01-08T15:19:22.909Z,992.22
2023-01-08T15:20:21.855Z,992.20
2023-01-08T15:21:22.859Z,992.22
2023-01-08T15:22:21.991Z,992.20
2023-01-08T15:23:21.750Z,992.18
2023-01-08T15:24:22.791Z,992.18
2023-01-08T15:25:21.979Z,992.14
2023-01-08T15:26:22.191Z,992.25
2023-01-08T15:27:26.822Z,992.16
2023-01-08T15:28:21.748Z,992.13
2023-01-08T15:29:21.868Z,992.16
2023-01-08T15:30:21.829Z,992.19
2023-01-08T15:31:21.731Z,992.20
2023-01-08T15:32:22.492Z,992.07
2023-01-08T15:33:21.883Z,992.15
2023-01-08T15:34:21.935Z,992.12
2023-01-08T15:35:21.607Z,992.18
2023-01-08T15:36:21.687Z,992.13
2023-01-08T15:37:21.748Z,992.07
2023-01-08T15:38:26.659Z,992.08
2023-01-08T15:39:21.981Z,992.04
2023-01-08T15:40:21.996Z,992.08
2023-01-08T15:41:22.682Z,992.08
2023-01-08T15:42:22.071Z,992.01
2023-01-08T15:43:22.084Z,992.05
2023-01-08T15:44:22.054Z,992.01
2023-01-08T15:45:21.579Z,991.99
2023-01-08T15:46:21.978Z,991.93
2023-01-08T15:47:21.603Z,991.90
2023-01-08T15:48:21.521Z,991.88
2023-01-08T15:49:26.559Z,991.91
2023-01-08T15:50:21.634Z,991.87
2023-01-08T15:51:21.472Z,991.86
2023-01-08T15:52:21.529Z,991.89
2023-01-08T15:53:21.524Z,991.80
2023-01-08T15:54:21.497Z,991.85
2023-01-08T15:55:21.513Z,991.80
2023-01-08T15:56:21.573Z,991.82
2023-01-08T15:57:21.397Z,991.76
2023-01-08T15:58:21.398Z,991.80
2023-01-08T15:59:21.378Z,991.75
2023-01-08T16:00:26.355Z,991.69
2023-01-08T16:01:21.771Z,991.71
2023-01-08T16:02:21.517Z,991.74
2023-01-08T16:03:21.376Z,991.75
2023-01-08T16:04:21.368Z,991.78
2023-01-08T16:05:21.377Z,991.71
2023-01-08T16:06:21.285Z,991.74
2023-01-08T16:07:21.328Z,991.71
2023-01-08T16:08:21.662Z,991.74
2023-01-08T16:09:21.351Z,991.75
2023-01-08T16:10:21.227Z,991.75
2023-01-08T16:11:26.236Z,991.72
2023-01-08T16:12:21.411Z,991.70
2023-01-08T16:13:21.182Z,991.61
2023-01-08T16:14:21.743Z,991.67
2023-01-08T16:15:22.135Z,991.68
2023-01-08T16:16:22.116Z,991.63
2023-01-08T16:17:21.611Z,991.63
2023-01-08T16:18:22.231Z,991.61
2023-01-08T16:19:21.360Z,991.65
2023-01-08T16:20:21.507Z,991.63
2023-01-08T16:21:21.291Z,991.63
2023-01-08T16:22:26.374Z,991.60
2023-01-08T16:23:21.104Z,991.60
2023-01-08T16:24:21.614Z,991.56
2023-01-08T16:25:21.291Z,991.52
2023-01-08T16:26:21.295Z,991.48
2023-01-08T16:27:21.190Z,991.52
2023-01-08T16:28:21.070Z,991.54
2023-01-08T16:29:21.125Z,991.55
2023-01-08T16:30:21.033Z,991.54
2023-01-08T16:31:21.360Z,991.54
2023-01-08T16:32:21.114Z,991.58
2023-01-08T16:33:26.231Z,991.58
2023-01-08T16:34:21.057Z,991.56
2023-01-08T16:35:20.980Z,991.56
2023-01-08T16:36:21.102Z,991.56
2023-01-08T16:37:21.253Z,991.52
2023-01-08T16:38:21.971Z,991.54
2023-01-08T16:39:20.993Z,991.51
2023-01-08T16:40:20.940Z,991.49
2023-01-08T16:41:21.267Z,991.49
2023-01-08T16:42:21.031Z,991.44
2023-01-08T16:43:21.229Z,991.42
2023-01-08T16:44:27.638Z,991.47
2023-01-08T16:45:21.098Z,991.45
2023-01-08T16:46:20.936Z,991.51
2023-01-08T16:47:22.127Z,991.45
2023-01-08T16:48:21.022Z,991.47
2023-01-08T16:49:21.503Z,991.46
2023-01-08T16:50:21.499Z,991.46
2023-01-08T16:51:20.748Z,991.38
2023-01-08T16:52:20.864Z,991.43
2023-01-08T16:53:21.028Z,991.45
2023-01-08T16:54:21.691Z,991.41
2023-01-08T16:55:25.984Z,991.44
2023-01-08T16:56:20.728Z,991.41
2023-01-08T16:57:21.138Z,991.43
2023-01-08T16:58:20.971Z,991.41
2023-01-08T16:59:23.604Z,991.46
2023-01-08T17:00:20.821Z,991.38
2023-01-08T17:01:20.832Z,991.36
2023-01-08T17:02:20.695Z,991.38
2023-01-08T17:03:20.700Z,991.40
2023-01-08T17:04:21.139Z,991.36
2023-01-08T17:05:20.869Z,991.29
2023-01-08T17:06:25.859Z,991.24
2023-01-08T17:07:21.277Z,991.27
2023-01-08T17:08:21.193Z,991.23
2023-01-08T17:09:20.653Z,991.29
2023-01-08T17:10:20.614Z,991.31
2023-01-08T17:11:20.566Z,991.28
2023-01-08T17:12:20.530Z,991.18
2023-01-08T17:13:20.855Z,991.15
2023-01-08T17:14:20.573Z,991.15
2023-01-08T17:15:20.561Z,991.08
2023-01-08T17:16:20.557Z,991.05
2023-01-08T17:17:25.616Z,991.06
2023-01-08T17:18:20.811Z,991.00
2023-01-08T17:19:21.098Z,991.01
2023-01-08T17:20:20.515Z,990.94
2023-01-08T17:21:20.560Z,990.93
2023-01-08T17:22:20.419Z,990.96
2023-01-08T17:23:20.777Z,990.94
2023-01-08T17:24:20.391Z,990.94
2023-01-08T17:25:20.657Z,990.86
2023-01-08T17:26:20.477Z,990.88
2023-01-08T17:27:20.507Z,990.86
2023-01-08T17:28:27.232Z,990.87